メインページ
METAR-TAF:

METAR-TAF

空港 :

アテネ国際空港

アテネ, ギリシャ

緯度: 37-56N, 経度: 023-56E, 海抜: 94m

現時点の気象観測

当レポートは24分前の20:50(UTC)に作成
北/北東の風 13kt
気温 29°C
湿度 35%
気圧 1010 hPa
視程10km以上
1,500メートル以下は雲なし、積乱雲なし

METAR: LGAV 192050Z 02013KT CAVOK 29/12 Q1010 NOSIG

時間: 00:14 (21:14 UTC)

予報

当レポートは4時間14分前の17:00(UTC)に作成
予報は19日の 18時(UTC)から 20日の 18時(UTC)まで有効
の風 18kt、最大28ktの突風を伴う
視程10km以上
高度3000ftの雲はほとんどない

TAF: LGAV 191700Z 1918/2018 36018G28KT 9999 FEW030

4,000以上の空港の気象観測と天気予報(METAR報とTAF報)

利用可能な観測所は地図上に黄色い丸と赤い丸で示す。

丸の上にカーソルを重ねると観測所名を参照できる。

次にクリックすると気象観測と天気予報を参照できる。

マップの切り替え:黒色「×」印の緑ボタンをクリックして拡大、「-」印の緑ボタンをクリックして縮小、緑色の三角印をクリックして隣りの地図に切り替え


METAR-TAF: